Time;durP1;ratioP1;P1;durP2;ratioP2;P2;SDS_P1;SDS_P2;PMS_P1;PMS_P2;Temp;Humidity;BMP_temperature;BMP_pressure;BME280_temperature;BME280_humidity;BME280_pressure;Samples;Min_cycle;Max_cycle;Signal;HPM_P1;HPM_P2
2021/10/16 00:01:31;;;;;;;7.40;5.47;;;;;;;8.45;66.32;98732.06;5073565;28;20051;-61
2021/10/16 00:03:57;;;;;;;9.95;5.60;;;;;;;8.49;66.49;98739.25;5073353;28;20098;-60
2021/10/16 00:06:23;;;;;;;9.88;6.18;;;;;;;8.52;66.44;98730.03;5073323;28;20577;-62
2021/10/16 00:08:49;;;;;;;10.43;5.57;;;;;;;8.51;66.40;98723.16;5073209;28;20047;-61
2021/10/16 00:11:15;;;;;;;8.32;5.57;;;;;;;8.55;66.84;98726.94;5073436;28;20063;-61
2021/10/16 00:13:42;;;;;;;10.88;5.53;;;;;;;8.56;66.63;98724.06;5072844;28;20203;-60
2021/10/16 00:16:10;;;;;;;11.98;6.10;;;;;;;8.55;66.62;98722.44;5073026;28;20048;-60
2021/10/16 00:18:35;;;;;;;11.10;5.97;;;;;;;8.55;67.25;98721.63;5072938;28;20048;-59
2021/10/16 00:21:03;;;;;;;10.38;6.10;;;;;;;8.57;66.28;98730.13;5072968;28;20044;-60
2021/10/16 00:23:28;;;;;;;10.10;5.95;;;;;;;8.58;67.33;98727.25;5072560;28;20394;-60
2021/10/16 00:25:55;;;;;;;9.45;5.57;;;;;;;8.63;67.23;98721.25;5073352;28;20041;-60
2021/10/16 00:28:20;;;;;;;10.63;5.97;;;;;;;8.63;67.42;98727.31;5072578;28;20474;-60
2021/10/16 00:30:46;;;;;;;10.13;6.10;;;;;;;8.64;66.62;98720.19;5072615;28;20144;-60
2021/10/16 00:33:14;;;;;;;10.27;6.85;;;;;;;8.68;66.89;98718.69;5072624;28;20068;-61
2021/10/16 00:35:40;;;;;;;8.75;5.38;;;;;;;8.69;67.40;98724.78;5071170;28;20049;-62
2021/10/16 00:38:06;;;;;;;8.88;5.85;;;;;;;8.66;66.83;98719.97;5037787;28;20074;-61
2021/10/16 00:40:32;;;;;;;10.68;6.13;;;;;;;8.57;67.09;98716.94;5071618;28;20036;-62
2021/10/16 00:42:58;;;;;;;9.15;5.50;;;;;;;8.57;67.67;98709.00;5071138;28;20063;-60
2021/10/16 00:45:25;;;;;;;9.35;5.57;;;;;;;8.61;67.44;98716.19;5071244;28;20041;-61
2021/10/16 00:47:51;;;;;;;11.25;5.63;;;;;;;8.64;66.83;98714.91;5071355;28;20047;-61
2021/10/16 00:50:20;;;;;;;9.75;5.60;;;;;;;8.67;66.93;98713.63;5072222;28;20568;-60
2021/10/16 00:52:46;;;;;;;10.25;6.00;;;;;;;8.63;67.51;98708.84;5072402;28;20135;-60
2021/10/16 00:55:15;;;;;;;8.35;5.20;;;;;;;8.65;67.59;98703.31;5070964;28;20190;-60
2021/10/16 00:57:42;;;;;;;10.45;5.50;;;;;;;8.67;67.13;98708.34;5070784;28;20060;-59
2021/10/16 01:00:09;;;;;;;10.95;6.20;;;;;;;8.67;66.92;98713.63;5072034;28;20548;-59
2021/10/16 01:02:35;;;;;;;7.70;5.32;;;;;;;8.64;67.61;98705.13;5072273;28;20089;-60
2021/10/16 01:05:03;;;;;;;8.35;5.65;;;;;;;8.71;67.25;98714.78;5070861;28;20051;-59
2021/10/16 01:07:29;;;;;;;9.65;5.97;;;;;;;8.67;67.83;98705.72;5070700;28;20067;-59
2021/10/16 01:09:55;;;;;;;9.60;5.93;;;;;;;8.70;66.81;98706.00;5070714;28;20047;-58
2021/10/16 01:12:21;;;;;;;9.60;5.65;;;;;;;8.71;66.81;98707.63;5070844;28;20045;-61
2021/10/16 01:14:51;;;;;;;9.85;5.30;;;;;;;8.74;67.26;98725.66;5070631;28;20132;-59
2021/10/16 01:17:18;;;;;;;;;;;;;;;8.78;67.20;98720.69;5071366;28;20075;-60
2021/10/16 01:19:45;;;;;;;7.55;5.25;;;;;;;8.79;66.78;98716.97;5070430;28;19973;-61
2021/10/16 01:22:11;;;;;;;8.32;5.55;;;;;;;8.81;67.14;98720.19;5070500;28;20045;-60
2021/10/16 01:24:37;;;;;;;8.23;5.65;;;;;;;8.83;66.58;98713.63;5053458;28;20033;-60
2021/10/16 01:27:05;;;;;;;10.50;5.43;;;;;;;8.87;66.90;98709.44;5071785;28;20070;-61
2021/10/16 01:29:31;;;;;;;6.95;4.90;;;;;;;8.87;66.28;98714.72;5070159;28;20129;-60
2021/10/16 01:32:02;;;;;;;9.18;5.72;;;;;;;8.89;66.54;98708.44;5072074;28;20048;-59
2021/10/16 01:34:28;;;;;;;8.80;5.80;;;;;;;8.94;66.25;98705.81;5071605;28;20072;-60
2021/10/16 01:36:54;;;;;;;8.73;5.40;;;;;;;8.95;66.51;98702.16;5071709;28;20041;-61
2021/10/16 01:39:24;;;;;;;7.38;5.18;;;;;;;8.97;66.31;98703.53;5052517;28;20043;-60
2021/10/16 01:41:50;;;;;;;8.63;5.63;;;;;;;8.97;66.47;98698.25;5070438;28;20528;-60
2021/10/16 01:44:17;;;;;;;9.45;5.97;;;;;;;8.96;66.14;98699.25;5070148;28;20044;-60
2021/10/16 01:46:43;;;;;;;9.85;5.65;;;;;;;8.89;66.73;98698.66;5071444;28;20045;-60
2021/10/16 01:49:16;;;;;;;9.82;6.25;;;;;;;8.92;66.65;98703.44;5054044;28;20083;-59
2021/10/16 01:51:44;;;;;;;11.57;6.10;;;;;;;8.95;65.83;98700.31;5070084;28;20123;-60
2021/10/16 01:54:11;;;;;;;9.52;5.20;;;;;;;8.93;65.70;98694.47;5069662;28;20055;-60
2021/10/16 01:56:41;;;;;;;8.70;5.38;;;;;;;8.93;66.03;98691.03;5034025;28;20057;-60
2021/10/16 01:59:14;;;;;;;8.50;5.43;;;;;;;8.97;65.83;98694.78;5049937;28;20048;-60
2021/10/16 02:02:18;;;;;;;8.50;5.82;;;;;;;8.96;65.97;98693.97;5009227;28;20046;-59
2021/10/16 02:04:55;;;;;;;9.50;5.97;;;;;;;8.92;65.79;98698.16;4996810;28;20052;-59
2021/10/16 02:07:21;;;;;;;9.27;5.93;;;;;;;8.85;66.58;98689.59;5040874;28;20056;-59
2021/10/16 02:09:47;;;;;;;8.38;5.97;;;;;;;8.86;65.44;98678.00;5052406;28;20040;-60
2021/10/16 02:12:13;;;;;;;8.32;5.57;;;;;;;8.92;65.88;98682.31;5070010;28;20044;-61
2021/10/16 02:14:41;;;;;;;8.02;5.18;;;;;;;8.95;65.37;98667.81;5069658;28;20044;-59
2021/10/16 02:17:10;;;;;;;10.65;5.18;;;;;;;8.90;65.70;98675.66;5069923;28;20118;-61
2021/10/16 02:19:37;;;;;;;7.80;5.72;;;;;;;8.95;66.15;98671.25;5069639;28;20052;-60
2021/10/16 02:22:07;;;;;;;11.23;6.25;;;;;;;8.99;65.73;98666.25;5070044;28;20049;-60
2021/10/16 02:24:33;;;;;;;8.77;5.47;;;;;;;8.95;65.43;98665.94;5053212;28;20422;-60
2021/10/16 02:27:00;;;;;;;10.65;5.93;;;;;;;9.04;65.62;98667.13;5069588;28;20102;-60
2021/10/16 02:29:25;;;;;;;9.18;5.57;;;;;;;9.03;65.21;98672.66;5052904;28;20041;-60
2021/10/16 02:32:01;;;;;;;11.05;6.07;;;;;;;9.01;65.56;98664.97;5066319;28;20053;-60
2021/10/16 02:34:27;;;;;;;10.70;5.38;;;;;;;9.00;65.98;98668.66;5049581;28;20045;-60
2021/10/16 02:36:57;;;;;;;10.77;6.43;;;;;;;9.04;65.83;98674.25;5067804;28;20055;-60
2021/10/16 02:39:24;;;;;;;11.25;6.72;;;;;;;9.06;65.33;98669.53;5052998;28;20055;-60
2021/10/16 02:41:50;;;;;;;9.40;6.07;;;;;;;9.05;65.37;98668.72;5069548;28;20048;-61
2021/10/16 02:44:16;;;;;;;8.38;5.93;;;;;;;9.08;64.63;98656.84;5069436;28;20521;-59
2021/10/16 02:46:44;;;;;;;8.25;5.93;;;;;;;9.13;64.53;98659.56;5069476;28;20051;-61
2021/10/16 02:49:10;;;;;;;8.77;5.80;;;;;;;9.12;64.86;98662.44;5069247;28;20127;-60
2021/10/16 02:51:36;;;;;;;11.93;6.57;;;;;;;9.11;64.82;98664.28;5052734;28;20063;-61
2021/10/16 02:54:02;;;;;;;11.00;6.47;;;;;;;9.11;64.51;98656.38;5053439;28;20540;-60
2021/10/16 02:56:28;;;;;;;9.68;6.18;;;;;;;9.13;64.37;98650.84;5066666;28;20060;-60
2021/10/16 02:59:04;;;;;;;9.40;6.28;;;;;;;9.10;64.73;98654.78;5073064;28;20072;-60
2021/10/16 03:01:31;;;;;;;9.20;6.40;;;;;;;9.09;64.80;98645.25;5073283;28;20094;-61
2021/10/16 03:03:57;;;;;;;10.93;5.88;;;;;;;9.14;64.36;98650.59;5074585;28;20037;-60
2021/10/16 03:06:23;;;;;;;9.63;5.47;;;;;;;9.14;64.83;98642.66;5073152;28;20421;-61
2021/10/16 03:08:49;;;;;;;10.00;5.88;;;;;;;9.07;65.09;98645.50;5074602;28;20532;-59
2021/10/16 03:11:18;;;;;;;9.45;5.88;;;;;;;9.08;65.33;98647.06;5072717;28;20127;-60
2021/10/16 03:13:44;;;;;;;10.30;6.55;;;;;;;9.02;65.36;98641.97;5072781;28;20059;-59
2021/10/16 03:16:16;;;;;;;7.90;5.78;;;;;;;9.03;65.38;98643.56;5073266;28;20102;-60
2021/10/16 03:18:44;;;;;;;10.70;5.95;;;;;;;9.01;65.32;98640.38;5039787;28;20044;-60
2021/10/16 03:21:10;;;;;;;9.38;5.93;;;;;;;9.02;65.68;98639.34;5074290;28;20044;-60
2021/10/16 03:23:36;;;;;;;8.65;5.60;;;;;;;8.97;65.03;98640.09;5072822;28;20040;-60
2021/10/16 03:26:02;;;;;;;10.70;6.05;;;;;;;8.96;65.74;98635.81;5072628;28;20040;-61
2021/10/16 03:28:28;;;;;;;9.88;6.90;;;;;;;8.99;65.71;98639.81;5039073;28;20494;-60
2021/10/16 03:30:54;;;;;;;10.82;5.82;;;;;;;9.01;65.39;98645.66;5073891;28;20094;-62
2021/10/16 03:33:19;;;;;;;10.43;6.47;;;;;;;9.09;65.13;98646.03;5072532;28;20504;-61
2021/10/16 03:35:45;;;;;;;9.20;5.85;;;;;;;9.09;65.02;98645.25;5073627;28;20052;-61
2021/10/16 03:38:11;;;;;;;11.00;6.55;;;;;;;9.14;65.14;98641.84;5073697;28;20047;-60
2021/10/16 03:40:37;;;;;;;10.55;6.68;;;;;;;9.12;65.01;98644.75;5072113;28;20182;-61
2021/10/16 03:43:05;;;;;;;10.60;6.53;;;;;;;9.13;65.43;98649.00;5072126;28;20044;-60
2021/10/16 03:45:31;;;;;;;10.55;7.30;;;;;;;9.15;65.03;98636.34;5072207;28;20502;-61
2021/10/16 03:47:57;;;;;;;9.88;6.63;;;;;;;9.09;65.42;98640.75;5072251;28;20044;-61
2021/10/16 03:50:23;;;;;;;11.15;6.72;;;;;;;9.12;64.79;98638.66;5073279;28;20493;-60
2021/10/16 03:52:49;;;;;;;9.70;6.38;;;;;;;9.13;65.21;98635.78;5072084;28;20353;-59
2021/10/16 03:55:14;;;;;;;9.38;6.78;;;;;;;9.17;64.83;98641.38;5073220;28;20056;-60
2021/10/16 03:57:41;;;;;;;11.68;5.70;;;;;;;9.19;64.70;98641.94;5072043;28;20424;-61
2021/10/16 04:00:16;;;;;;;9.85;6.18;;;;;;;9.17;65.06;98647.44;5071685;28;20124;-60
2021/10/16 04:02:50;;;;;;;14.57;8.48;;;;;;;9.19;65.50;98642.72;5054594;28;20047;-60
2021/10/16 04:05:17;;;;;;;10.18;6.63;;;;;;;9.24;65.72;98642.00;5071771;28;20036;-60
2021/10/16 04:07:43;;;;;;;9.82;6.80;;;;;;;9.23;65.38;98638.53;5055311;28;20036;-60
2021/10/16 04:10:10;;;;;;;11.50;6.85;;;;;;;9.27;64.77;98642.28;5055014;28;20061;-60
2021/10/16 04:12:36;;;;;;;13.85;6.82;;;;;;;9.28;65.08;98640.44;5072086;28;20045;-60
2021/10/16 04:15:03;;;;;;;13.48;6.50;;;;;;;9.27;65.13;98646.78;5055153;28;20048;-60
2021/10/16 04:17:34;;;;;;;13.90;6.68;;;;;;;9.26;64.92;98639.88;5055836;28;20049;-60
2021/10/16 04:20:00;;;;;;;10.02;6.43;;;;;;;9.27;64.81;98644.16;5071492;28;20044;-60
2021/10/16 04:22:28;;;;;;;11.55;6.00;;;;;;;9.22;64.64;98644.06;5055231;28;20436;-60
2021/10/16 04:24:54;;;;;;;11.32;7.03;;;;;;;9.25;64.80;98639.09;5038201;28;20044;-61
2021/10/16 04:27:23;;;;;;;9.13;6.82;;;;;;;9.23;64.85;98633.25;5071676;28;20506;-59
2021/10/16 04:29:57;;;;;;;10.10;6.65;;;;;;;9.26;65.05;98631.94;5071334;28;20052;-60
2021/10/16 04:32:31;;;;;;;14.65;6.63;;;;;;;9.30;65.23;98635.72;5072017;28;20048;-60
2021/10/16 04:34:56;;;;;;;10.57;6.50;;;;;;;9.27;65.03;98628.28;5071278;28;20041;-61
2021/10/16 04:37:22;;;;;;;12.57;6.88;;;;;;;9.15;64.89;98624.94;5071580;28;20399;-62
2021/10/16 04:39:48;;;;;;;10.77;6.53;;;;;;;9.09;65.35;98627.53;5072807;28;20044;-60
2021/10/16 04:42:15;;;;;;;12.77;7.15;;;;;;;9.17;65.35;98628.94;5071073;28;20234;-60
2021/10/16 04:44:42;;;;;;;12.80;7.07;;;;;;;9.17;66.04;98621.00;5072014;28;20135;-61
2021/10/16 04:47:08;;;;;;;10.88;5.85;;;;;;;9.21;65.50;98621.34;5051133;28;20183;-61
2021/10/16 04:49:35;;;;;;;11.80;6.80;;;;;;;9.28;64.47;98625.38;5051029;28;20045;-61
2021/10/16 04:52:07;;;;;;;12.25;6.53;;;;;;;9.31;64.39;98627.53;5070972;28;20524;-60
2021/10/16 04:54:33;;;;;;;11.35;6.35;;;;;;;9.34;64.69;98618.28;5070809;28;20067;-61
2021/10/16 04:56:59;;;;;;;10.18;6.65;;;;;;;9.37;64.29;98624.94;5072362;28;20075;-60
2021/10/16 04:59:28;;;;;;;13.48;6.68;;;;;;;9.39;64.63;98618.34;5070886;28;20048;-61
2021/10/16 05:01:54;;;;;;;10.50;7.07;;;;;;;9.39;64.79;98618.34;5070865;28;20072;-63
2021/10/16 05:04:21;;;;;;;11.88;6.63;;;;;;;9.40;64.34;98613.88;5054406;28;20497;-62
2021/10/16 05:06:47;;;;;;;12.80;6.82;;;;;;;9.38;63.73;98611.44;5070524;28;20051;-62
2021/10/16 05:09:14;;;;;;;13.60;7.80;;;;;;;9.40;64.30;98598.78;5070592;28;20040;-59
2021/10/16 05:11:39;;;;;;;10.52;6.60;;;;;;;9.49;64.06;98605.22;5070427;28;20040;-61
2021/10/16 05:14:06;;;;;;;11.35;7.03;;;;;;;9.45;64.15;98598.06;5053014;28;20048;-59
2021/10/16 05:16:33;;;;;;;11.30;7.47;;;;;;;9.53;63.64;98594.97;5070468;28;20098;-61
2021/10/16 05:19:00;;;;;;;13.88;7.10;;;;;;;9.51;63.46;98594.41;5053870;28;20467;-61
2021/10/16 05:21:26;;;;;;;11.95;7.07;;;;;;;9.55;63.45;98595.50;5050377;28;20081;-61
2021/10/16 05:23:54;;;;;;;11.23;6.35;;;;;;;9.57;63.33;98596.06;5050333;28;20574;-61
2021/10/16 05:26:20;;;;;;;9.13;6.25;;;;;;;9.57;63.28;98600.56;5062537;28;20506;-62
2021/10/16 05:28:47;;;;;;;9.43;6.50;;;;;;;9.57;63.75;98603.19;5070465;28;20067;-60
2021/10/16 05:31:12;;;;;;;13.38;6.90;;;;;;;9.66;63.17;98605.13;5070114;28;20045;-63
2021/10/16 05:33:38;;;;;;;13.57;7.82;;;;;;;9.69;62.34;98596.69;5070405;28;20051;-60
2021/10/16 05:36:05;;;;;;;9.80;6.63;;;;;;;9.68;62.60;98608.34;5070083;28;20048;-61
2021/10/16 05:38:30;;;;;;;10.43;6.70;;;;;;;9.63;63.34;98597.69;5053374;28;20059;-61
2021/10/16 05:40:56;;;;;;;11.00;6.63;;;;;;;9.59;63.44;98599.25;5071760;28;20569;-61
2021/10/16 05:43:24;;;;;;;16.10;8.02;;;;;;;9.65;62.97;98586.88;5070000;28;20498;-60
2021/10/16 05:45:53;;;;;;;10.38;6.68;;;;;;;9.67;62.61;98595.34;5033856;28;20039;-61
2021/10/16 05:48:20;;;;;;;14.32;7.22;;;;;;;9.78;62.93;98592.53;5066700;28;20044;-62
2021/10/16 05:50:46;;;;;;;12.63;6.70;;;;;;;9.87;62.19;98597.38;5057087;28;20102;-62
2021/10/16 05:53:15;;;;;;;11.13;6.70;;;;;;;9.95;62.23;98591.63;5070086;28;20132;-60
2021/10/16 05:55:41;;;;;;;9.52;6.75;;;;;;;9.98;61.94;98599.88;5069796;28;20127;-59
2021/10/16 05:58:07;;;;;;;11.05;6.47;;;;;;;10.02;61.50;98584.25;5070235;28;20559;-60
2021/10/16 06:00:34;;;;;;;11.77;6.68;;;;;;;9.96;61.32;98593.22;5049541;28;20098;-61
2021/10/16 06:03:00;;;;;;;9.05;6.65;;;;;;;9.93;61.51;98580.47;5050072;28;20041;-61
2021/10/16 06:05:35;;;;;;;11.02;7.22;;;;;;;9.86;61.86;98566.69;5056625;28;20044;-60
2021/10/16 06:08:01;;;;;;;13.77;7.05;;;;;;;9.83;62.39;98569.84;5070124;28;20032;-59
2021/10/16 06:10:27;;;;;;;13.63;7.28;;;;;;;9.83;62.57;98567.97;5069440;28;20093;-62
2021/10/16 06:12:53;;;;;;;8.68;6.35;;;;;;;9.86;62.03;98558.72;5070244;28;20043;-60
2021/10/16 06:15:19;;;;;;;11.13;7.03;;;;;;;9.90;61.99;98562.47;5049400;28;20083;-61
2021/10/16 06:17:45;;;;;;;10.13;6.80;;;;;;;9.99;61.89;98563.59;5049797;28;20084;-60
2021/10/16 06:20:13;;;;;;;9.75;5.97;;;;;;;9.98;62.20;98568.09;5035634;28;20049;-59
2021/10/16 06:22:39;;;;;;;11.05;6.40;;;;;;;10.04;61.20;98568.94;5053291;28;20544;-62
2021/10/16 06:25:06;;;;;;;13.98;7.15;;;;;;;10.04;62.02;98568.94;5071214;28;20242;-61
2021/10/16 06:27:32;;;;;;;11.32;6.80;;;;;;;10.08;61.83;98569.22;5074057;28;20040;-64
2021/10/16 06:29:58;;;;;;;13.20;7.25;;;;;;;10.21;61.34;98579.38;5075180;28;20051;-60
2021/10/16 06:32:24;;;;;;;10.25;6.88;;;;;;;10.23;60.56;98567.50;5074014;28;20452;-63
2021/10/16 06:34:53;;;;;;;11.38;6.70;;;;;;;10.24;60.61;98568.28;5057593;28;20448;-65
2021/10/16 06:37:19;;;;;;;11.50;6.30;;;;;;;10.26;60.63;98560.84;5073850;28;20545;-62
2021/10/16 06:39:45;;;;;;;10.57;6.63;;;;;;;10.14;61.14;98558.41;5070933;28;20059;-62
2021/10/16 06:42:11;;;;;;;12.13;6.53;;;;;;;10.29;60.91;98563.03;5071624;28;20418;-62
2021/10/16 06:44:57;;;;;;;11.65;7.10;;;;;;;10.43;60.13;98558.09;5074468;28;20501;-62
2021/10/16 06:47:28;;;;;;;14.38;7.05;;;;;;;10.46;60.08;98558.38;5056526;28;20047;-62
2021/10/16 06:50:06;;;;;;;13.27;7.20;;;;;;;10.57;59.79;98563.72;5073083;28;20375;-61
2021/10/16 06:52:32;;;;;;;13.27;6.35;;;;;;;10.60;59.73;98565.88;5073333;28;20048;-63
2021/10/16 06:54:58;;;;;;;11.80;6.63;;;;;;;10.56;59.32;98556.81;5073766;28;20493;-62
2021/10/16 06:57:24;;;;;;;12.65;5.97;;;;;;;10.62;60.10;98555.81;5074806;28;20489;-63
2021/10/16 06:59:50;;;;;;;11.90;6.75;;;;;;;10.67;59.87;98559.25;5073590;28;20047;-62
2021/10/16 07:02:18;;;;;;;11.55;6.07;;;;;;;10.70;59.04;98560.59;5072790;28;20055;-64
2021/10/16 07:04:50;;;;;;;10.85;6.97;;;;;;;10.64;59.59;98562.44;5073086;28;20045;-61
2021/10/16 07:07:16;;;;;;;10.43;6.20;;;;;;;10.50;59.83;98553.38;5072626;28;20498;-63
2021/10/16 07:09:49;;;;;;;10.02;6.60;;;;;;;10.48;59.83;98550.16;5073014;28;20413;-61
2021/10/16 07:12:15;;;;;;;17.00;6.95;;;;;;;10.65;59.73;98555.31;5072948;28;20036;-62
2021/10/16 07:14:41;;;;;;;11.25;6.53;;;;;;;10.74;58.74;98545.78;5074575;28;20047;-62
2021/10/16 07:17:10;;;;;;;12.30;6.45;;;;;;;10.79;58.86;98547.66;5072745;28;20063;-61
2021/10/16 07:19:36;;;;;;;12.50;6.75;;;;;;;10.85;58.96;98542.13;5072841;28;20060;-62
2021/10/16 07:22:02;;;;;;;10.90;6.45;;;;;;;10.81;58.71;98532.28;5056280;28;20037;-62
2021/10/16 07:24:28;;;;;;;10.27;6.32;;;;;;;10.90;58.72;98550.09;5074381;28;20062;-60
2021/10/16 07:26:55;;;;;;;11.38;6.32;;;;;;;10.96;58.48;98542.94;5073906;28;20044;-59
2021/10/16 07:29:22;;;;;;;11.35;6.25;;;;;;;10.87;58.16;98552.47;5073854;28;20044;-62
2021/10/16 07:31:50;;;;;;;10.02;7.00;;;;;;;10.91;58.27;98535.78;5072383;28;20055;-64
2021/10/16 07:34:16;;;;;;;11.50;6.88;;;;;;;10.93;58.43;98537.38;5056035;28;20474;-63
2021/10/16 07:36:42;;;;;;;12.35;6.60;;;;;;;11.07;57.97;98546.44;5071293;28;20068;-64
2021/10/16 07:39:09;;;;;;;11.88;6.80;;;;;;;11.07;57.85;98538.47;5073718;28;20039;-62
2021/10/16 07:41:36;;;;;;;10.20;6.00;;;;;;;10.97;57.44;98541.09;5072396;28;20094;-62
2021/10/16 07:44:04;;;;;;;14.40;6.45;;;;;;;11.09;57.51;98534.50;5072512;28;20090;-62
2021/10/16 07:46:30;;;;;;;11.07;6.15;;;;;;;11.10;57.34;98533.44;5072322;28;20044;-63
2021/10/16 07:48:55;;;;;;;11.63;6.40;;;;;;;11.21;57.31;98541.44;5073891;28;20516;-61
2021/10/16 07:51:21;;;;;;;11.68;6.10;;;;;;;11.30;56.37;98538.00;5073226;28;20383;-64
2021/10/16 07:53:47;;;;;;;9.50;5.85;;;;;;;11.37;56.26;98535.09;5074010;28;20082;-66
2021/10/16 07:56:13;;;;;;;10.52;5.95;;;;;;;11.33;56.21;98534.84;5073313;28;20063;-64
2021/10/16 07:58:40;;;;;;;10.52;6.50;;;;;;;11.31;56.76;98528.97;5073786;28;20041;-62
2021/10/16 08:01:06;;;;;;;13.00;6.57;;;;;;;11.35;56.23;98530.06;5072102;28;20048;-62
2021/10/16 08:03:32;;;;;;;11.32;5.65;;;;;;;11.40;55.66;98529.25;5072416;28;20135;-61
2021/10/16 08:05:58;;;;;;;10.18;5.85;;;;;;;11.48;55.95;98542.00;5052014;28;20128;-62
2021/10/16 08:08:24;;;;;;;10.50;6.10;;;;;;;11.40;55.93;98531.13;5052036;28;20102;-60
2021/10/16 08:10:52;;;;;;;9.88;6.28;;;;;;;11.46;55.58;98533.50;5059596;28;20097;-61
2021/10/16 08:13:20;;;;;;;10.13;5.80;;;;;;;11.44;55.72;98524.22;5023029;28;20040;-63
2021/10/16 08:15:46;;;;;;;10.80;6.72;;;;;;;11.28;55.65;98531.38;5071477;28;20071;-65
2021/10/16 08:18:13;;;;;;;11.68;6.80;;;;;;;11.37;55.56;98541.19;5071959;28;20120;-65
2021/10/16 08:20:38;;;;;;;12.93;6.72;;;;;;;11.56;55.29;98532.75;5071748;28;20081;-64
2021/10/16 08:23:05;;;;;;;12.40;6.13;;;;;;;11.68;54.79;98535.16;5071860;28;20044;-65
2021/10/16 08:25:32;;;;;;;12.70;6.65;;;;;;;11.71;54.42;98532.75;5071586;28;20041;-64
2021/10/16 08:27:58;;;;;;;10.57;5.68;;;;;;;11.77;54.16;98544.97;5071874;28;20046;-61
2021/10/16 08:30:25;;;;;;;11.63;5.90;;;;;;;11.76;54.07;98551.31;5071134;28;20040;-61
2021/10/16 08:32:51;;;;;;;9.90;5.88;;;;;;;11.66;54.12;98559.28;5072662;28;20113;-64
2021/10/16 08:35:17;;;;;;;12.07;6.85;;;;;;;11.65;54.07;98533.00;5072496;28;20051;-62
2021/10/16 08:37:43;;;;;;;11.30;6.07;;;;;;;11.67;53.90;98550.25;5073008;28;20032;-64
2021/10/16 08:40:09;;;;;;;11.73;6.53;;;;;;;11.79;53.66;98545.50;5071240;28;20484;-63
2021/10/16 08:42:35;;;;;;;13.95;6.35;;;;;;;11.89;53.45;98551.91;5073334;28;20051;-64
2021/10/16 08:45:03;;;;;;;10.23;5.50;;;;;;;11.92;53.46;98543.41;5072684;28;20033;-63
2021/10/16 08:47:38;;;;;;;10.27;6.28;;;;;;;11.98;53.21;98540.47;5071552;28;20040;-61
2021/10/16 08:50:07;;;;;;;12.07;5.85;;;;;;;12.04;52.82;98536.75;5072702;28;20418;-63
2021/10/16 08:52:33;;;;;;;9.82;6.20;;;;;;;12.12;52.79;98535.41;5072497;28;20044;-62
2021/10/16 08:54:59;;;;;;;13.15;6.38;;;;;;;12.21;52.40;98536.47;5070738;28;20049;-62
2021/10/16 08:57:38;;;;;;;9.98;5.90;;;;;;;12.39;52.31;98537.75;5072667;28;20110;-63
2021/10/16 09:00:42;;;;;;;15.23;6.20;;;;;;;12.35;51.61;98547.31;5071040;28;20040;-61
2021/10/16 09:03:17;;;;;;;12.63;6.28;;;;;;;12.30;51.49;98536.72;5070859;28;20589;-62
2021/10/16 09:06:20;;;;;;;9.93;6.07;;;;;;;12.30;51.14;98531.41;5071728;28;20086;-62
2021/10/16 09:08:50;;;;;;;10.95;6.45;;;;;;;12.18;51.32;98539.66;5068105;28;20052;-61
2021/10/16 09:11:22;;;;;;;9.13;6.05;;;;;;;12.07;50.90;98539.94;5071715;28;20102;-62
2021/10/16 09:13:52;;;;;;;11.65;6.28;;;;;;;11.96;50.87;98531.16;5070914;28;20055;-63
2021/10/16 09:16:22;;;;;;;14.77;5.97;;;;;;;12.11;50.50;98525.03;5071800;28;20056;-64
2021/10/16 09:19:11;;;;;;;13.57;6.65;;;;;;;12.09;50.24;98532.47;5070910;28;20045;-62
2021/10/16 09:21:43;;;;;;;9.52;5.90;;;;;;;12.13;49.73;98522.91;5071737;28;20080;-62
2021/10/16 09:24:14;;;;;;;13.40;6.13;;;;;;;12.14;49.21;98521.84;5053909;28;20047;-62
2021/10/16 09:26:45;;;;;;;9.85;5.68;;;;;;;12.21;48.45;98519.72;5071361;28;20094;-62
2021/10/16 09:29:13;;;;;;;10.27;5.82;;;;;;;12.37;48.11;98513.28;5070518;28;20044;-62
2021/10/16 09:31:53;;;;;;;15.85;6.10;;;;;;;12.33;47.95;98506.94;5071298;28;20498;-62
2021/10/16 09:34:30;;;;;;;10.30;5.85;;;;;;;12.36;47.36;98516.22;5070493;28;20044;-64
2021/10/16 09:37:10;;;;;;;9.85;5.47;;;;;;;12.39;47.09;98510.38;5070296;28;20048;-63
2021/10/16 09:39:38;;;;;;;12.73;5.55;;;;;;;12.38;46.98;98506.09;5070453;28;20044;-61
2021/10/16 09:42:05;;;;;;;9.30;5.82;;;;;;;12.32;46.52;98499.22;5071263;28;20098;-62
2021/10/16 09:44:34;;;;;;;9.32;5.40;;;;;;;12.35;46.76;98501.34;5070254;28;20060;-61
2021/10/16 09:47:17;;;;;;;15.15;5.85;;;;;;;12.38;46.16;98506.09;5069890;28;20203;-61
2021/10/16 09:49:46;;;;;;;9.57;5.95;;;;;;;12.43;46.37;98496.25;5070284;28;20072;-63
2021/10/16 09:52:14;;;;;;;13.68;6.60;;;;;;;12.49;46.27;98505.81;5071506;28;20044;-64
2021/10/16 09:54:45;;;;;;;10.45;5.38;;;;;;;12.53;45.95;98503.44;5071505;28;20090;-61
2021/10/16 09:57:14;;;;;;;13.60;6.10;;;;;;;12.44;45.88;98491.75;5071195;28;20040;-64
2021/10/16 09:59:41;;;;;;;12.57;6.35;;;;;;;12.55;45.60;98489.84;5071241;28;20044;-64
2021/10/16 10:02:08;;;;;;;12.68;6.15;;;;;;;12.57;45.77;98498.34;5069886;28;20513;-65
2021/10/16 10:04:42;;;;;;;12.30;5.88;;;;;;;12.63;45.80;98492.75;5070129;28;20062;-61
2021/10/16 10:07:09;;;;;;;9.10;5.78;;;;;;;12.64;45.64;98490.88;5071436;28;20037;-63
2021/10/16 10:09:38;;;;;;;10.82;5.75;;;;;;;12.59;45.49;98491.72;5071654;28;20131;-62
2021/10/16 10:12:05;;;;;;;8.07;5.53;;;;;;;12.57;45.24;98498.34;5071122;28;20140;-65
2021/10/16 10:14:31;;;;;;;11.40;5.65;;;;;;;12.39;45.31;98489.13;5071388;28;20126;-63
2021/10/16 10:17:04;;;;;;;10.70;6.10;;;;;;;12.41;45.40;98500.25;5070558;28;20036;-64
2021/10/16 10:19:45;;;;;;;12.73;5.53;;;;;;;12.43;45.59;98487.50;5070281;28;20144;-64
2021/10/16 10:22:17;;;;;;;7.97;5.50;;;;;;;12.49;45.40;98481.88;5069856;28;20114;-63
2021/10/16 10:24:45;;;;;;;20.02;6.55;;;;;;;12.60;44.98;98489.84;5053271;28;20048;-63
2021/10/16 10:27:13;;;;;;;10.90;5.93;;;;;;;12.56;44.89;98491.44;5069583;28;20079;-63
2021/10/16 10:29:42;;;;;;;13.65;6.35;;;;;;;12.46;45.00;98490.41;5071237;28;20124;-63
2021/10/16 10:32:27;;;;;;;11.65;6.40;;;;;;;12.46;44.96;98490.41;5070796;28;20506;-63
2021/10/16 10:34:56;;;;;;;9.73;5.80;;;;;;;12.42;45.34;98489.38;5071544;28;20596;-62
2021/10/16 10:37:28;;;;;;;10.32;6.13;;;;;;;12.31;45.58;98487.81;5070877;28;20041;-64
2021/10/16 10:39:57;;;;;;;13.68;6.30;;;;;;;12.31;45.61;98506.41;5070640;28;20082;-64
2021/10/16 10:42:25;;;;;;;11.85;6.07;;;;;;;12.17;46.09;98506.16;5069327;28;20139;-65
2021/10/16 10:45:00;;;;;;;11.15;5.97;;;;;;;12.17;46.83;98508.81;5069737;28;20037;-63
2021/10/16 10:47:25;;;;;;;10.82;6.28;;;;;;;12.05;46.69;98500.34;5069671;28;20045;-64
2021/10/16 10:49:53;;;;;;;15.02;6.40;;;;;;;12.01;47.11;98505.41;5071011;28;20541;-62
2021/10/16 10:52:21;;;;;;;9.32;6.43;;;;;;;12.03;46.97;98511.25;5070118;28;20529;-65
2021/10/16 10:55:08;;;;;;;10.35;5.72;;;;;;;12.04;46.72;98518.16;5052798;28;20106;-63
2021/10/16 10:57:56;;;;;;;15.55;6.75;;;;;;;12.09;46.91;98517.34;5069113;28;20133;-63
2021/10/16 11:00:29;;;;;;;11.27;6.63;;;;;;;12.05;46.88;98519.72;5070226;28;20037;-63
2021/10/16 11:02:54;;;;;;;8.40;5.55;;;;;;;12.06;46.82;98523.19;5070748;28;20499;-64
2021/10/16 11:05:35;;;;;;;14.50;5.78;;;;;;;12.12;46.29;98523.97;5070305;28;20079;-63
2021/10/16 11:08:07;;;;;;;9.70;5.70;;;;;;;12.10;46.37;98532.22;5070852;28;20131;-63
2021/10/16 11:10:33;;;;;;;8.95;5.90;;;;;;;12.13;46.40;98529.03;5068912;28;20403;-63
2021/10/16 11:13:10;;;;;;;8.73;5.75;;;;;;;12.12;46.50;98523.97;5074545;28;20082;-66
2021/10/16 11:15:36;;;;;;;12.05;6.25;;;;;;;12.07;46.88;98522.13;5074301;28;20043;-63
2021/10/16 11:18:09;;;;;;;8.52;5.88;;;;;;;12.04;46.27;98509.38;5074625;28;20040;-61
2021/10/16 11:20:35;;;;;;;8.90;5.90;;;;;;;12.02;46.24;98508.84;5074279;28;20040;-63
2021/10/16 11:23:01;;;;;;;10.93;6.55;;;;;;;12.04;46.38;98518.16;5074233;28;20406;-62
2021/10/16 11:25:32;;;;;;;9.38;5.72;;;;;;;11.92;46.39;98514.19;5073819;28;20094;-63
2021/10/16 11:28:10;;;;;;;12.82;6.82;;;;;;;11.96;46.82;98524.00;5074132;28;20044;-62
2021/10/16 11:30:47;;;;;;;10.55;6.50;;;;;;;11.88;47.31;98521.88;5072320;28;20139;-62
2021/10/16 11:33:18;;;;;;;10.68;6.25;;;;;;;11.88;47.27;98521.88;5073971;28;20123;-61
2021/10/16 11:35:46;;;;;;;11.57;6.35;;;;;;;11.89;47.49;98528.00;5073664;28;20132;-63
2021/10/16 11:38:16;;;;;;;11.35;6.60;;;;;;;11.81;47.88;98527.44;5074022;28;20047;-63